createdAt,value
2019-04-14T00:04:31.250Z,96017.17
2019-04-14T00:09:29.349Z,96020.67
2019-04-14T00:14:27.213Z,96019.17
2019-04-14T00:19:24.319Z,96016.93
2019-04-14T00:24:21.388Z,96017.83
2019-04-14T00:29:19.506Z,96008.40
2019-04-14T00:34:24.588Z,96013.56
2019-04-14T00:39:27.272Z,96014.19
2019-04-14T00:44:36.526Z,96015.67
2019-04-14T00:49:33.999Z,96015.64
2019-04-14T00:54:31.062Z,96008.97
2019-04-14T00:59:29.051Z,96012.33
2019-04-14T01:04:27.231Z,96012.03
2019-04-14T01:09:24.435Z,96012.14
2019-04-14T01:14:21.391Z,96013.00
2019-04-14T01:19:19.874Z,96015.41
2019-04-14T01:24:18.587Z,96018.78
2019-04-14T01:29:16.578Z,96018.70
2019-04-14T01:34:15.085Z,96018.75
2019-04-14T01:39:13.295Z,96022.00
2019-04-14T01:44:11.243Z,96022.06
2019-04-14T01:49:09.350Z,96022.06
2019-04-14T01:54:17.125Z,96019.72
2019-04-14T01:59:15.217Z,96017.76
2019-04-14T02:04:12.405Z,96020.25
2019-04-14T02:09:11.886Z,96020.44
2019-04-14T02:14:10.408Z,96019.80
2019-04-14T02:19:08.790Z,96022.80
2019-04-14T02:24:07.023Z,96018.39
2019-04-14T02:29:05.636Z,96014.67
2019-04-14T02:34:34.699Z,96019.61
2019-04-14T02:39:31.491Z,96016.24
2019-04-14T02:44:34.308Z,96023.64
2019-04-14T02:49:27.293Z,96015.33
2019-04-14T02:59:19.722Z,96026.37
2019-04-14T03:04:19.482Z,96021.71
2019-04-14T03:09:30.513Z,96021.30
2019-04-14T03:14:25.118Z,96017.22
2019-04-14T03:19:48.516Z,96016.23
2019-04-14T03:24:34.091Z,96015.28
2019-04-14T03:29:43.703Z,96018.67
2019-04-14T03:34:55.165Z,96009.69
2019-04-14T03:49:45.431Z,96030.95
2019-04-14T03:54:33.148Z,96036.78
2019-04-14T03:59:15.179Z,96040.94
2019-04-14T04:04:14.154Z,96048.77
2019-04-14T04:09:12.484Z,96048.29
2019-04-14T04:14:09.774Z,96051.60
2019-04-14T04:19:20.098Z,96052.41
2019-04-14T04:24:33.423Z,96052.27
2019-04-14T04:29:39.793Z,96041.75
2019-04-14T04:34:38.681Z,96052.41
2019-04-14T04:39:41.270Z,96047.08
2019-04-14T04:44:38.381Z,96049.91
2019-04-14T04:49:36.182Z,96047.25
2019-04-14T04:54:34.223Z,96043.77
2019-04-14T04:59:32.094Z,96047.13
2019-04-14T05:04:29.165Z,96054.13
2019-04-14T05:09:36.243Z,96046.40
2019-04-14T05:14:48.102Z,96057.68
2019-04-14T05:19:45.558Z,96061.64
2019-04-14T05:24:43.968Z,96065.30
2019-04-14T05:29:41.188Z,96067.36
2019-04-14T05:34:39.003Z,96067.02
2019-04-14T05:39:36.154Z,96069.41
2019-04-14T05:44:34.060Z,96073.36
2019-04-14T05:49:39.116Z,96071.16
2019-04-14T05:54:30.164Z,96077.48
2019-04-14T05:59:28.549Z,96077.20
2019-04-14T06:04:26.432Z,96086.65
2019-04-14T06:09:23.598Z,96088.95
2019-04-14T06:14:20.658Z,96088.22
2019-04-14T06:19:17.625Z,96087.45
2019-04-14T06:24:14.899Z,96086.77
2019-04-14T06:29:11.934Z,96086.11
2019-04-14T06:34:16.760Z,96094.56
2019-04-14T06:39:16.548Z,96099.36
2019-04-14T06:44:13.588Z,96099.66
2019-04-14T06:49:10.633Z,96106.50
2019-04-14T06:54:07.746Z,96098.93
2019-04-14T06:59:04.707Z,96108.61
2019-04-14T07:04:01.714Z,96112.00
2019-04-14T07:08:58.769Z,96109.54
2019-04-14T07:13:55.862Z,96115.16
2019-04-14T07:18:52.921Z,96114.39
2019-04-14T07:23:49.943Z,96109.56
2019-04-14T07:28:56.636Z,96110.81
2019-04-14T07:33:51.666Z,96116.79
2019-04-14T07:38:57.818Z,96131.56
2019-04-14T07:44:05.697Z,96124.49
2019-04-14T07:49:05.231Z,96125.52
2019-04-14T07:54:06.923Z,96126.08
2019-04-14T07:59:05.768Z,96133.05
2019-04-14T08:04:07.502Z,96132.95
2019-04-14T08:09:11.021Z,96133.00
2019-04-14T08:14:08.113Z,96137.73
2019-04-14T08:19:06.219Z,96136.57
2019-04-14T08:24:03.555Z,96139.19
2019-04-14T08:29:00.684Z,96137.35
2019-04-14T08:33:58.685Z,96139.62
2019-04-14T08:38:55.800Z,96139.58
2019-04-14T08:44:03.980Z,96144.17
2019-04-14T08:49:02.841Z,96147.80
2019-04-14T08:54:01.702Z,96142.99
2019-04-14T08:59:09.295Z,96135.02
2019-04-14T09:04:21.401Z,96121.48
2019-04-14T09:09:27.250Z,96135.19
2019-04-14T09:14:24.333Z,96131.83
2019-04-14T09:19:23.346Z,96127.80
2019-04-14T09:24:20.600Z,96133.52
2019-04-14T09:29:17.667Z,96137.11
2019-04-14T09:34:14.802Z,96131.87
2019-04-14T09:39:11.937Z,96137.13
2019-04-14T09:44:08.983Z,96151.33
2019-04-14T09:49:08.369Z,96145.98
2019-04-14T09:54:05.431Z,96137.16
2019-04-14T09:59:02.598Z,96146.18
2019-04-14T10:03:59.758Z,96153.05
2019-04-14T10:08:56.842Z,96138.26
2019-04-14T10:13:54.006Z,96159.37
2019-04-14T10:18:54.161Z,96149.93
2019-04-14T10:23:52.187Z,96150.34
2019-04-14T10:28:50.739Z,96149.75
2019-04-14T10:33:47.995Z,96140.68
2019-04-14T10:38:45.164Z,96147.59
2019-04-14T10:43:42.268Z,96146.41
2019-04-14T10:48:39.470Z,96155.95
2019-04-14T10:53:36.565Z,96151.06
2019-04-14T10:58:34.790Z,96146.38
2019-04-14T11:03:31.971Z,96147.41
2019-04-14T11:08:29.096Z,96148.03
2019-04-14T11:13:26.213Z,96145.61
2019-04-14T11:18:24.907Z,96145.73
2019-04-14T11:23:21.881Z,96136.41
2019-04-14T11:28:19.754Z,96133.19
2019-04-14T11:33:24.724Z,96146.05
2019-04-14T11:38:23.721Z,96146.42
2019-04-14T11:43:20.840Z,96168.19
2019-04-14T11:48:17.950Z,96154.34
2019-04-14T11:53:15.043Z,96147.25
2019-04-14T11:58:12.685Z,96149.75
2019-04-14T12:03:15.421Z,96149.10
2019-04-14T12:08:15.503Z,96138.32
2019-04-14T12:13:12.720Z,96137.48
2019-04-14T12:18:10.140Z,96138.77
2019-04-14T12:23:07.102Z,96139.56
2019-04-14T12:28:04.780Z,96134.09
2019-04-14T12:33:02.686Z,96141.97
2019-04-14T12:38:00.076Z,96132.78
2019-04-14T12:43:05.197Z,96128.06
2019-04-14T12:48:21.521Z,96134.34
2019-04-14T12:53:18.589Z,96126.98
2019-04-14T12:58:19.722Z,96117.64
2019-04-14T13:03:16.751Z,96121.83
2019-04-14T13:08:13.739Z,96122.45
2019-04-14T13:13:10.733Z,96122.81
2019-04-14T13:18:08.423Z,96129.42
2019-04-14T13:23:05.446Z,96135.84
2019-04-14T13:28:02.583Z,96129.33
2019-04-14T13:32:59.615Z,96132.98
2019-04-14T13:37:56.807Z,96133.50
2019-04-14T13:42:54.834Z,96128.27
2019-04-14T13:47:51.890Z,96142.27
2019-04-14T13:52:48.922Z,96129.16
2019-04-14T13:57:45.961Z,96131.91
2019-04-14T14:02:43.088Z,96120.19
2019-04-14T14:07:40.251Z,96134.39
2019-04-14T14:12:48.530Z,96125.86
2019-04-14T14:17:47.435Z,96114.87
2019-04-14T14:22:44.425Z,96132.09
2019-04-14T14:27:41.530Z,96133.67
2019-04-14T14:32:38.628Z,96129.25
2019-04-14T14:37:35.709Z,96128.61
2019-04-14T14:42:33.802Z,96147.38
2019-04-14T14:47:32.640Z,96138.54
2019-04-14T14:52:30.191Z,96149.27
2019-04-14T14:57:27.187Z,96148.56
2019-04-14T15:02:24.179Z,96152.33
2019-04-14T15:07:21.216Z,96149.70
2019-04-14T15:12:18.217Z,96159.55
2019-04-14T15:17:15.337Z,96147.12
2019-04-14T15:22:12.839Z,96150.72
2019-04-14T15:27:10.899Z,96149.22
2019-04-14T15:32:08.049Z,96149.75
2019-04-14T15:37:05.404Z,96148.38
2019-04-14T15:42:02.696Z,96160.41
2019-04-14T15:47:00.711Z,96157.07
2019-04-14T15:51:57.653Z,96159.64
2019-04-14T15:57:01.586Z,96156.73
2019-04-14T16:02:00.415Z,96160.58
2019-04-14T16:06:59.355Z,96158.13
2019-04-14T16:11:58.141Z,96152.45
2019-04-14T16:16:55.141Z,96167.31
2019-04-14T16:21:52.229Z,96164.53
2019-04-14T16:27:06.351Z,96163.41
2019-04-14T16:32:17.711Z,96170.80
2019-04-14T16:37:14.730Z,96168.50
2019-04-14T16:42:11.756Z,96165.72
2019-04-14T16:47:08.924Z,96176.39
2019-04-14T16:52:08.416Z,96173.56
2019-04-14T16:57:05.311Z,96175.77
2019-04-14T17:02:10.743Z,96177.85
2019-04-14T17:07:02.579Z,96181.97
2019-04-14T17:11:59.595Z,96181.72
2019-04-14T17:16:56.845Z,96184.67
2019-04-14T17:21:55.830Z,96181.98
2019-04-14T17:26:53.878Z,96188.85
2019-04-14T17:31:57.296Z,96189.11
2019-04-14T17:37:12.618Z,96197.04
2019-04-14T17:42:24.417Z,96199.73
2019-04-14T17:47:25.098Z,96202.88
2019-04-14T17:52:42.402Z,96211.25
2019-04-14T17:57:53.297Z,96228.75
2019-04-14T18:03:08.889Z,96227.91
2019-04-14T18:08:24.290Z,96233.76
2019-04-14T18:13:29.177Z,96243.15
2019-04-14T18:18:31.046Z,96252.91
2019-04-14T18:23:28.138Z,96257.70
2019-04-14T18:28:43.654Z,96258.15
2019-04-14T18:33:43.616Z,96263.56
2019-04-14T18:38:59.601Z,96268.67
2019-04-14T18:44:07.402Z,96271.66
2019-04-14T18:49:22.562Z,96278.91
2019-04-14T18:54:24.571Z,96273.70
2019-04-14T18:59:21.581Z,96279.06
2019-04-14T19:04:18.659Z,96286.42
2019-04-14T19:09:15.702Z,96286.91
2019-04-14T19:14:14.597Z,96285.91
2019-04-14T19:19:12.009Z,96287.77
2019-04-14T19:24:09.025Z,96290.07
2019-04-14T19:29:06.064Z,96288.20
2019-04-14T19:34:03.744Z,96283.91
2019-04-14T19:39:00.697Z,96283.23
2019-04-14T19:43:57.915Z,96279.92
2019-04-14T19:54:12.197Z,96287.71
2019-04-14T19:59:09.165Z,96283.13
2019-04-14T20:04:06.210Z,96282.77
2019-04-14T20:09:06.202Z,96288.95
2019-04-14T20:14:03.938Z,96290.43
2019-04-14T20:19:19.397Z,96285.39
2019-04-14T20:24:31.174Z,96290.77
2019-04-14T20:29:29.936Z,96302.20
2019-04-14T20:34:27.153Z,96302.89
2019-04-14T20:39:24.547Z,96301.42
2019-04-14T20:44:21.648Z,96300.73
2019-04-14T20:49:18.787Z,96310.56
2019-04-14T20:54:15.848Z,96305.27
2019-04-14T20:59:12.922Z,96307.65
2019-04-14T21:04:17.772Z,96309.97
2019-04-14T21:09:21.134Z,96317.72
2019-04-14T21:14:35.300Z,96315.20
2019-04-14T21:19:47.434Z,96314.19
2019-04-14T21:24:46.697Z,96315.72
2019-04-14T21:29:54.610Z,96327.73
2019-04-14T21:35:12.032Z,96320.22
2019-04-14T21:40:08.975Z,96328.90
2019-04-14T21:45:06.431Z,96328.73
2019-04-14T21:50:04.956Z,96324.91
2019-04-14T21:55:03.887Z,96333.58
2019-04-14T22:00:00.818Z,96331.41
2019-04-14T22:05:13.236Z,96343.26
2019-04-14T22:10:13.583Z,96347.43
2019-04-14T22:15:12.485Z,96346.58
2019-04-14T22:20:09.517Z,96356.08
2019-04-14T22:25:06.629Z,96352.72
2019-04-14T22:30:06.600Z,96355.06
2019-04-14T22:35:04.776Z,96361.20
2019-04-14T22:40:03.470Z,96357.86
2019-04-14T22:45:00.551Z,96358.23
2019-04-14T22:49:57.513Z,96356.23
2019-04-14T22:54:54.608Z,96361.86
2019-04-14T22:59:52.457Z,96362.89
2019-04-14T23:05:00.069Z,96360.68
2019-04-14T23:10:11.028Z,96358.22
2019-04-14T23:15:17.042Z,96358.71
2019-04-14T23:20:14.188Z,96366.36
2019-04-14T23:25:14.729Z,96363.91
2019-04-14T23:30:11.846Z,96363.94
2019-04-14T23:35:08.928Z,96359.63
2019-04-14T23:40:06.783Z,96368.50
2019-04-14T23:45:06.259Z,96370.02
2019-04-14T23:50:06.077Z,96374.08
2019-04-14T23:55:07.228Z,96371.32
